sensor_id;sensor_type;location;lat;lon;timestamp;pressure;altitude;pressure_sealevel;temperature;humidity
38191;BME280;25191;47.510;19.124;2022-09-09T00:17:08;99976.25;;;25.14;52.12
38191;BME280;25191;47.510;19.124;2022-09-09T00:27:31;99995.94;;;25.11;52.38
38191;BME280;25191;47.510;19.124;2022-09-09T00:37:37;99994.78;;;25.14;52.38
38191;BME280;25191;47.510;19.124;2022-09-09T00:47:40;99991.47;;;25.12;52.13
38191;BME280;25191;47.510;19.124;2022-09-09T00:57:43;99992.16;;;25.14;51.99
38191;BME280;25191;47.510;19.124;2022-09-09T01:07:48;100008.19;;;25.12;51.78
38191;BME280;25191;47.510;19.124;2022-09-09T01:17:51;100015.31;;;25.12;52.10
38191;BME280;25191;47.510;19.124;2022-09-09T01:27:59;100031.34;;;25.10;51.91
38191;BME280;25191;47.510;19.124;2022-09-09T01:38:02;100026.22;;;25.08;51.84
38191;BME280;25191;47.510;19.124;2022-09-09T01:48:02;100028.72;;;25.10;51.69
38191;BME280;25191;47.510;19.124;2022-09-09T01:58:11;100043.75;;;25.09;51.89
38191;BME280;25191;47.510;19.124;2022-09-09T02:08:31;100033.47;;;25.06;52.06
38191;BME280;25191;47.510;19.124;2022-09-09T02:28:48;100051.88;;;25.08;51.77
38191;BME280;25191;47.510;19.124;2022-09-09T02:38:50;100048.41;;;25.07;51.97
38191;BME280;25191;47.510;19.124;2022-09-09T02:49:19;100041.72;;;25.03;51.92
38191;BME280;25191;47.510;19.124;2022-09-09T02:59:24;100042.41;;;25.05;51.74
38191;BME280;25191;47.510;19.124;2022-09-09T03:09:26;100039.91;;;25.04;52.15
38191;BME280;25191;47.510;19.124;2022-09-09T03:19:26;100046.19;;;25.03;51.99
38191;BME280;25191;47.510;19.124;2022-09-09T03:29:27;100052.47;;;25.02;51.94
38191;BME280;25191;47.510;19.124;2022-09-09T03:39:28;100048.00;;;25.02;51.59
38191;BME280;25191;47.510;19.124;2022-09-09T03:49:29;100042.03;;;25.00;51.89
38191;BME280;25191;47.510;19.124;2022-09-09T03:59:29;100065.03;;;25.00;51.71
38191;BME280;25191;47.510;19.124;2022-09-09T04:09:30;100061.72;;;24.98;51.84
38191;BME280;25191;47.510;19.124;2022-09-09T04:19:30;100055.72;;;24.96;51.79
38191;BME280;25191;47.510;19.124;2022-09-09T04:29:31;100069.25;;;24.92;50.43
38191;BME280;25191;47.510;19.124;2022-09-09T04:39:31;100065.16;;;24.62;49.79
38191;BME280;25191;47.510;19.124;2022-09-09T04:49:32;100059.41;;;24.39;48.98
38191;BME280;25191;47.510;19.124;2022-09-09T04:59:33;100070.09;;;24.19;50.01
38191;BME280;25191;47.510;19.124;2022-09-09T05:09:34;100064.19;;;24.07;49.74
38191;BME280;25191;47.510;19.124;2022-09-09T05:19:34;100073.44;;;23.74;50.88
38191;BME280;25191;47.510;19.124;2022-09-09T05:29:34;100078.19;;;23.70;50.96
38191;BME280;25191;47.510;19.124;2022-09-09T05:39:35;100085.88;;;23.54;51.26
38191;BME280;25191;47.510;19.124;2022-09-09T05:49:36;100087.28;;;23.48;51.51
38191;BME280;25191;47.510;19.124;2022-09-09T05:59:37;100088.97;;;23.39;51.69
38191;BME280;25191;47.510;19.124;2022-09-09T06:09:38;100097.72;;;23.40;51.87
38191;BME280;25191;47.510;19.124;2022-09-09T06:19:38;100102.31;;;23.38;52.31
38191;BME280;25191;47.510;19.124;2022-09-09T06:29:40;100098.00;;;23.27;51.72
38191;BME280;25191;47.510;19.124;2022-09-09T06:39:40;100097.88;;;23.28;52.03
38191;BME280;25191;47.510;19.124;2022-09-09T06:49:41;100100.34;;;23.40;51.74
38191;BME280;25191;47.510;19.124;2022-09-09T06:59:43;100098.13;;;23.35;51.75
38191;BME280;25191;47.510;19.124;2022-09-09T07:09:43;100110.22;;;23.47;51.41
38191;BME280;25191;47.510;19.124;2022-09-09T07:19:45;100115.78;;;23.34;51.49
38191;BME280;25191;47.510;19.124;2022-09-09T07:29:45;100127.19;;;23.35;51.11
38191;BME280;25191;47.510;19.124;2022-09-09T07:39:46;100124.13;;;23.49;50.88
38191;BME280;25191;47.510;19.124;2022-09-09T07:49:46;100128.56;;;23.69;51.04
38191;BME280;25191;47.510;19.124;2022-09-09T07:59:49;100131.59;;;23.83;50.93
38191;BME280;25191;47.510;19.124;2022-09-09T08:09:50;100133.13;;;23.96;51.02
38191;BME280;25191;47.510;19.124;2022-09-09T08:19:52;100129.63;;;24.05;51.15
38191;BME280;25191;47.510;19.124;2022-09-09T08:29:54;100130.56;;;24.14;51.21
38191;BME280;25191;47.510;19.124;2022-09-09T08:39:55;100111.34;;;24.22;51.17
38191;BME280;25191;47.510;19.124;2022-09-09T09:00:15;100127.94;;;24.42;50.93
38191;BME280;25191;47.510;19.124;2022-09-09T09:10:37;100134.91;;;24.43;50.73
38191;BME280;25191;47.510;19.124;2022-09-09T09:31:06;100112.56;;;24.55;50.88
38191;BME280;25191;47.510;19.124;2022-09-09T09:41:08;100095.78;;;24.65;50.34
38191;BME280;25191;47.510;19.124;2022-09-09T09:51:12;100099.66;;;24.70;50.63
38191;BME280;25191;47.510;19.124;2022-09-09T10:01:34;100109.66;;;24.76;50.11
38191;BME280;25191;47.510;19.124;2022-09-09T10:11:46;100098.19;;;24.86;49.54
38191;BME280;25191;47.510;19.124;2022-09-09T10:22:28;100087.16;;;24.90;48.86
38191;BME280;25191;47.510;19.124;2022-09-09T10:33:04;100091.22;;;25.03;48.79
38191;BME280;25191;47.510;19.124;2022-09-09T10:53:37;100090.78;;;25.25;50.13
38191;BME280;25191;47.510;19.124;2022-09-09T11:03:41;100078.53;;;25.33;49.37
38191;BME280;25191;47.510;19.124;2022-09-09T11:13:49;100081.06;;;25.34;49.51
38191;BME280;25191;47.510;19.124;2022-09-09T11:23:59;100076.16;;;25.39;48.62
38191;BME280;25191;47.510;19.124;2022-09-09T11:44:35;100060.50;;;25.54;49.87
38191;BME280;25191;47.510;19.124;2022-09-09T11:54:47;100047.09;;;25.56;49.21
38191;BME280;25191;47.510;19.124;2022-09-09T12:35:20;100035.44;;;25.75;49.27
38191;BME280;25191;47.510;19.124;2022-09-09T12:45:24;100022.88;;;25.77;49.14
38191;BME280;25191;47.510;19.124;2022-09-09T12:55:31;100017.63;;;25.85;48.89
38191;BME280;25191;47.510;19.124;2022-09-09T13:05:38;99998.06;;;25.95;49.45
38191;BME280;25191;47.510;19.124;2022-09-09T13:15:39;99984.69;;;26.04;49.47
38191;BME280;25191;47.510;19.124;2022-09-09T13:25:40;99977.94;;;26.10;49.46
38191;BME280;25191;47.510;19.124;2022-09-09T13:35:54;99968.06;;;25.94;49.75
38191;BME280;25191;47.510;19.124;2022-09-09T13:45:57;99976.06;;;26.02;49.41
38191;BME280;25191;47.510;19.124;2022-09-09T13:55:59;99960.28;;;26.01;49.65
38191;BME280;25191;47.510;19.124;2022-09-09T14:05:59;99951.00;;;25.97;50.38
38191;BME280;25191;47.510;19.124;2022-09-09T14:16:01;99942.38;;;25.95;50.23
38191;BME280;25191;47.510;19.124;2022-09-09T14:26:02;99930.44;;;25.91;50.01
38191;BME280;25191;47.510;19.124;2022-09-09T14:36:03;99943.53;;;25.92;50.48
38191;BME280;25191;47.510;19.124;2022-09-09T14:46:05;99930.78;;;25.96;50.15
38191;BME280;25191;47.510;19.124;2022-09-09T14:56:12;99931.28;;;25.99;48.09
38191;BME280;25191;47.510;19.124;2022-09-09T15:06:13;99936.75;;;26.06;48.54
38191;BME280;25191;47.510;19.124;2022-09-09T15:16:17;99946.28;;;26.09;48.66
38191;BME280;25191;47.510;19.124;2022-09-09T15:26:18;99929.19;;;26.11;46.92
38191;BME280;25191;47.510;19.124;2022-09-09T15:36:21;99933.00;;;26.17;46.32
38191;BME280;25191;47.510;19.124;2022-09-09T15:46:39;99928.19;;;26.20;45.49
38191;BME280;25191;47.510;19.124;2022-09-09T15:56:41;99937.00;;;26.21;45.05
38191;BME280;25191;47.510;19.124;2022-09-09T16:06:41;99930.72;;;26.22;44.40
38191;BME280;25191;47.510;19.124;2022-09-09T16:16:42;99950.28;;;26.21;44.43
38191;BME280;25191;47.510;19.124;2022-09-09T16:26:44;99941.47;;;26.20;44.19
38191;BME280;25191;47.510;19.124;2022-09-09T16:36:46;99941.84;;;26.26;44.05
38191;BME280;25191;47.510;19.124;2022-09-09T16:46:48;99935.69;;;26.25;43.51
38191;BME280;25191;47.510;19.124;2022-09-09T16:56:51;99941.47;;;26.20;44.25
38191;BME280;25191;47.510;19.124;2022-09-09T17:06:53;99950.41;;;26.11;45.79
38191;BME280;25191;47.510;19.124;2022-09-09T17:16:54;99956.03;;;26.08;46.22
38191;BME280;25191;47.510;19.124;2022-09-09T17:26:55;99960.16;;;26.02;46.06
38191;BME280;25191;47.510;19.124;2022-09-09T17:36:55;99963.28;;;25.98;46.11
38191;BME280;25191;47.510;19.124;2022-09-09T17:46:55;99954.31;;;25.91;46.47
38191;BME280;25191;47.510;19.124;2022-09-09T17:56:57;99974.84;;;25.88;46.42
38191;BME280;25191;47.510;19.124;2022-09-09T18:06:58;99977.50;;;25.88;46.76
38191;BME280;25191;47.510;19.124;2022-09-09T18:17:00;99953.97;;;25.85;46.87
38191;BME280;25191;47.510;19.124;2022-09-09T18:27:01;99981.78;;;25.81;47.03
38191;BME280;25191;47.510;19.124;2022-09-09T18:37:01;99971.50;;;25.78;47.62
38191;BME280;25191;47.510;19.124;2022-09-09T18:47:03;99983.41;;;25.74;47.37
38191;BME280;25191;47.510;19.124;2022-09-09T18:57:04;99975.13;;;25.77;47.80
38191;BME280;25191;47.510;19.124;2022-09-09T19:07:05;99989.56;;;25.75;47.97
38191;BME280;25191;47.510;19.124;2022-09-09T19:17:05;99994.19;;;25.72;47.96
38191;BME280;25191;47.510;19.124;2022-09-09T19:27:06;99986.28;;;25.54;47.39
38191;BME280;25191;47.510;19.124;2022-09-09T19:37:06;99998.97;;;25.42;47.01
38191;BME280;25191;47.510;19.124;2022-09-09T19:47:07;99986.47;;;25.35;48.37
38191;BME280;25191;47.510;19.124;2022-09-09T19:57:07;99994.06;;;25.30;49.31
38191;BME280;25191;47.510;19.124;2022-09-09T20:07:09;99984.63;;;25.27;49.96
38191;BME280;25191;47.510;19.124;2022-09-09T20:17:09;99998.31;;;25.22;50.82
38191;BME280;25191;47.510;19.124;2022-09-09T20:27:10;99996.13;;;25.18;51.24
38191;BME280;25191;47.510;19.124;2022-09-09T20:37:10;100015.63;;;25.08;52.18
38191;BME280;25191;47.510;19.124;2022-09-09T20:47:11;100007.97;;;25.05;52.85
38191;BME280;25191;47.510;19.124;2022-09-09T20:57:11;99995.34;;;24.99;53.73
38191;BME280;25191;47.510;19.124;2022-09-09T21:07:15;99987.84;;;24.94;54.88
38191;BME280;25191;47.510;19.124;2022-09-09T21:17:16;99976.72;;;24.91;54.59
38191;BME280;25191;47.510;19.124;2022-09-09T21:27:18;99978.31;;;24.84;55.37
38191;BME280;25191;47.510;19.124;2022-09-09T21:37:20;99985.00;;;24.70;56.00
38191;BME280;25191;47.510;19.124;2022-09-09T21:47:21;99990.13;;;24.71;55.87
38191;BME280;25191;47.510;19.124;2022-09-09T21:57:22;99980.69;;;24.69;56.01
38191;BME280;25191;47.510;19.124;2022-09-09T22:07:23;99963.28;;;24.66;57.16
38191;BME280;25191;47.510;19.124;2022-09-09T22:17:23;99970.69;;;24.62;57.09
38191;BME280;25191;47.510;19.124;2022-09-09T22:27:23;99976.75;;;24.55;57.75
38191;BME280;25191;47.510;19.124;2022-09-09T22:37:24;99970.38;;;24.48;57.78
38191;BME280;25191;47.510;19.124;2022-09-09T22:47:25;99971.66;;;24.43;57.81
38191;BME280;25191;47.510;19.124;2022-09-09T22:57:25;99966.66;;;24.40;57.91
38191;BME280;25191;47.510;19.124;2022-09-09T23:07:27;99952.38;;;24.33;57.97
38191;BME280;25191;47.510;19.124;2022-09-09T23:17:27;99952.38;;;24.33;58.16
38191;BME280;25191;47.510;19.124;2022-09-09T23:27:29;99958.13;;;24.28;57.78
38191;BME280;25191;47.510;19.124;2022-09-09T23:37:30;99965.28;;;24.18;58.01
38191;BME280;25191;47.510;19.124;2022-09-09T23:47:31;99967.84;;;24.10;58.12
38191;BME280;25191;47.510;19.124;2022-09-09T23:57:31;99973.28;;;24.08;57.74
